Terminal Aerodrome Forecast
Issued by NWS

Home | Current Version | Previous Version | Graphics & Text | Print | Product List | Glossary On
Versions: 1 2 3 4 5 6 7 8 9 10 11 12 13 14
000
FTUS43 KMPX 071700
TAFAXN
TAF
KAXN 071732Z 0718/0818 31010KT P6SM VCTS SCT040 BKN080CB
      TEMPO 0719/0723 3SM -TSRA OVC025CB
     FM080100 30008KT P6SM BKN040
     FM080500 30010KT P6SM SCT250
     FM081500 32012KT P6SM SCT030=

USA.gov is the U.S. government's official web portal to all federal, state and local government web resources and services.